LFLB METAR and TAF | Updated Today

LFLB METAR

Chambéry-Savoie Airport

Observation time: 25 min. ago

LFLB 062100Z AUTO 00000KT 9999 2200 FEW052 13/13 Q1028

Need help? Read our tutorial on how to read METARs or read the parsed version below.

Chambéry-Savoie Airport (LFLB) METAR

  • Weather conditions on Thu, 06 Oct 2022 21:00:00 +0000 (25 min. ago):
  • Present conditions: Dry
  • Clouds: A few at 1585 meters
  • Visibility: 2200 meters
  • Wind: Calm
  • Temperature: 13 celsius
  • Dew point: 13 celsius
  • Pressure: 1028 millibars
  • Remarks: None


Useful to know...

LFLB TAF

Chambéry-Savoie Airport

TAF LFLB 061400Z 0615/0715 35006KT 9999 SCT040 TEMPO 0622/0709 3000 BR BKN008 PROB40 0702/0708 0600 FG VV///
Observation time: 7:25 hr. ago
Need help? Read our tutorial on how to read TAFs or read the parsed version below.

Parsed version of TAF for Chambéry-Savoie Airport (LFLB)

  • From 06 October at 15:00 UTC, to day 07 of the month at 15:00 UTC
  • Clouds: Scattered at 1219 meters
  • Visibility: Greater than 10 km
  • Wind: 350 degrees at 6
  • Expected to arise temporarily, from 06 October at 22:00 UTC, to day 07 of the month at 09:00 UTC
  • Clouds: Broken sky at 244 meters
  • Visibility: 3000 meters
  • Other: Mist
  • From 07 October at 02:00 UTC, to day 07 of the month at 08:00 UTC
    Probability of 40%
  • Clouds: Vertical visibility
  • Visibility: 600 meters
  • Other: Fog